MNZ weather

Manassas Regional Airport/Harry P. Davis Field
Manassas, Virginia, United States

Public forecast

Using degrees Fahrenheit for public forecast. Weather courtesy of forecast.io.

Current aviation weather report (METAR) for Manassas Regional Airport/Harry P. Davis Field

Retrieved 2020/01/29 19:56 UTC (6 minutes ago):

KHEF 291956Z 36011KT 10SM CLR 07/M03 A3008 RMK AO2 SLP193 T00671033

Closest aviation forecast (TAF) to Manassas Regional Airport/Harry P. Davis Field

Closest forecast is Washington Dulles International Airport, 13.7 nm (25.3 km) NNE. Retrieved 2020/01/29 18:22 UTC (2 hours ago):

TAF KIAD 291720Z 2918/3024 33007KT P6SM BKN045 FM292000 33007KT P6SM SCT045 FM301000 01004KT P6SM SCT200 FM301200 05004KT P6SM BKN130